GVAC

Amílcar Cabral International Airport

Espargos, Cape Verde
TAF GVAC 230500Z 2306/2412 06013KT 9999 BKN014
Issued Valid From Valid To
Jan-23 @ 05:00 UTC
(2 hours ago)
Jan-23 @ 06:00 UTC
(an hour ago)
Jan-24 @ 12:00 UTC
(-1 days ago)
Jan-23 @ 06:00 to Jan-24 @ 12:00
TAF GVAC 230500Z 2306/2412 06013KT 9999 BKN014
Wind Visibility Clouds
60° at 13 knots 10,000+ meters
  • Broken at 1,400' AGL
TAF GVAC 230500Z 2306/2412 06013KT 9999 BKN014
Issued Jan-23 @ 05:00 UTC
(2 hours ago)
Valid From Jan-23 @ 06:00 UTC
(an hour ago)
Valid To Jan-24 @ 12:00 UTC
(-1 days ago)
Jan-23 @ 06:00 - Jan-24 @ 12:00
Wind Visibility
60° at 13 knots 10,000+ meters
Clouds
  • Broken at 1,400' AGL